createdAt,value
2022-08-30T00:00:29.675Z,11.52
2022-08-30T00:03:00.651Z,11.49
2022-08-30T00:05:29.042Z,11.51
2022-08-30T00:07:57.711Z,11.50
2022-08-30T00:10:28.904Z,11.49
2022-08-30T00:12:58.286Z,11.48
2022-08-30T00:15:27.012Z,11.47
2022-08-30T00:17:55.318Z,11.45
2022-08-30T00:20:25.188Z,11.42
2022-08-30T00:22:53.432Z,11.41
2022-08-30T00:25:21.893Z,11.38
2022-08-30T00:27:52.501Z,11.38
2022-08-30T00:30:21.554Z,11.38
2022-08-30T00:32:49.928Z,11.35
2022-08-30T00:35:20.744Z,11.34
2022-08-30T00:37:51.690Z,11.34
2022-08-30T00:40:24.897Z,11.29
2022-08-30T00:42:59.556Z,11.25
2022-08-30T00:45:35.137Z,11.22
2022-08-30T00:48:06.416Z,11.19
2022-08-30T00:50:37.487Z,11.12
2022-08-30T00:53:08.532Z,11.07
2022-08-30T00:55:37.301Z,11.05
2022-08-30T00:58:09.296Z,11.02
2022-08-30T01:00:37.532Z,11.00
2022-08-30T01:03:09.572Z,10.95
2022-08-30T01:05:41.281Z,10.94
2022-08-30T01:08:09.978Z,10.91
2022-08-30T01:10:40.021Z,10.91
2022-08-30T01:13:10.171Z,10.89
2022-08-30T01:15:38.706Z,10.87
2022-08-30T01:18:09.175Z,10.83
2022-08-30T01:20:41.793Z,10.81
2022-08-30T01:23:13.259Z,10.78
2022-08-30T01:25:42.537Z,10.76
2022-08-30T01:28:12.178Z,10.75
2022-08-30T01:30:40.437Z,10.74
2022-08-30T01:33:09.144Z,10.69
2022-08-30T01:35:46.735Z,10.68
2022-08-30T01:38:18.068Z,10.69
2022-08-30T01:40:46.391Z,10.70
2022-08-30T01:43:15.752Z,10.65
2022-08-30T01:45:44.119Z,10.62
2022-08-30T01:48:13.751Z,10.59
2022-08-30T01:50:42.443Z,10.58
2022-08-30T01:53:14.604Z,10.57
2022-08-30T01:55:44.571Z,10.54
2022-08-30T01:58:13.683Z,10.50
2022-08-30T02:00:42.323Z,10.45
2022-08-30T02:03:10.589Z,10.43
2022-08-30T02:05:40.219Z,10.42
2022-08-30T02:08:11.517Z,10.41
2022-08-30T02:10:41.485Z,10.41
2022-08-30T02:13:11.421Z,10.42
2022-08-30T02:15:41.590Z,10.39
2022-08-30T02:18:12.003Z,10.39
2022-08-30T02:20:40.965Z,10.40
2022-08-30T02:23:10.221Z,10.40
2022-08-30T02:25:38.406Z,10.35
2022-08-30T02:28:07.350Z,10.31
2022-08-30T02:30:38.247Z,10.27
2022-08-30T02:33:06.968Z,10.26
2022-08-30T02:35:39.291Z,10.24
2022-08-30T02:38:08.335Z,10.25
2022-08-30T02:40:37.060Z,10.23
2022-08-30T02:43:07.844Z,10.17
2022-08-30T02:45:38.032Z,10.12
2022-08-30T02:48:06.726Z,10.12
2022-08-30T02:50:35.357Z,10.13
2022-08-30T02:53:03.951Z,10.09
2022-08-30T02:55:32.411Z,10.06
2022-08-30T02:58:01.688Z,10.04
2022-08-30T03:00:30.181Z,10.04
2022-08-30T03:03:04.190Z,10.07
2022-08-30T03:05:33.181Z,10.04
2022-08-30T03:08:01.519Z,9.99
2022-08-30T03:10:30.015Z,9.99
2022-08-30T03:13:00.903Z,9.99
2022-08-30T03:15:29.313Z,9.96
2022-08-30T03:18:00.103Z,9.92
2022-08-30T03:20:29.916Z,9.92
2022-08-30T03:23:00.249Z,9.89
2022-08-30T03:25:29.718Z,9.88
2022-08-30T03:27:57.955Z,9.88
2022-08-30T03:30:26.561Z,9.88
2022-08-30T03:32:54.828Z,9.91
2022-08-30T03:35:27.511Z,9.89
2022-08-30T03:38:04.478Z,9.89
2022-08-30T03:40:32.816Z,9.87
2022-08-30T03:43:02.457Z,9.85
2022-08-30T03:45:31.778Z,9.83
2022-08-30T03:48:03.293Z,9.80
2022-08-30T03:50:35.517Z,9.79
2022-08-30T03:53:03.824Z,9.77
2022-08-30T03:55:32.144Z,9.76
2022-08-30T03:58:00.835Z,9.70
2022-08-30T04:00:29.264Z,9.68
2022-08-30T04:02:57.621Z,9.66
2022-08-30T04:05:27.732Z,9.65
2022-08-30T04:07:58.301Z,9.64
2022-08-30T04:10:26.598Z,9.65
2022-08-30T04:12:55.220Z,9.64
2022-08-30T04:15:23.389Z,9.62
2022-08-30T04:17:54.016Z,9.60
2022-08-30T04:20:22.412Z,9.57
2022-08-30T04:22:52.691Z,9.58
2022-08-30T04:25:24.898Z,9.60
2022-08-30T04:27:54.316Z,9.64
2022-08-30T04:30:22.584Z,9.66
2022-08-30T04:32:54.504Z,9.71
2022-08-30T04:35:26.443Z,9.73
2022-08-30T04:37:56.111Z,9.76
2022-08-30T04:40:28.744Z,9.76
2022-08-30T04:42:57.149Z,9.78
2022-08-30T04:45:26.791Z,9.80
2022-08-30T04:47:56.547Z,9.81
2022-08-30T04:50:25.938Z,9.91
2022-08-30T04:52:54.263Z,9.97
2022-08-30T04:55:27.664Z,9.97
2022-08-30T04:57:57.722Z,9.99
2022-08-30T05:00:26.313Z,10.04
2022-08-30T05:02:54.983Z,10.08
2022-08-30T05:05:41.988Z,10.15
2022-08-30T05:08:11.372Z,10.17
2022-08-30T05:10:47.097Z,10.21
2022-08-30T05:13:17.609Z,10.26
2022-08-30T05:15:47.774Z,10.32
2022-08-30T05:18:19.293Z,10.35
2022-08-30T05:20:50.461Z,10.39
2022-08-30T05:23:19.439Z,10.46
2022-08-30T05:25:47.691Z,10.51
2022-08-30T05:28:18.042Z,10.59
2022-08-30T05:30:47.527Z,10.66
2022-08-30T05:33:17.928Z,10.73
2022-08-30T05:35:46.466Z,10.80
2022-08-30T05:38:14.663Z,10.86
2022-08-30T05:40:43.441Z,10.93
2022-08-30T05:43:11.807Z,11.02
2022-08-30T05:45:41.957Z,11.13
2022-08-30T05:48:12.996Z,11.24
2022-08-30T05:50:42.379Z,11.37
2022-08-30T05:53:10.629Z,11.53
2022-08-30T05:55:38.874Z,11.67
2022-08-30T05:58:07.100Z,11.82
2022-08-30T06:00:36.795Z,11.98
2022-08-30T06:03:06.785Z,12.15
2022-08-30T06:05:35.269Z,12.33
2022-08-30T06:08:04.237Z,12.51
2022-08-30T06:10:32.440Z,12.69
2022-08-30T06:13:00.766Z,12.88
2022-08-30T06:15:29.259Z,13.12
2022-08-30T06:17:58.044Z,13.29
2022-08-30T06:20:28.275Z,13.49
2022-08-30T06:22:58.585Z,13.70
2022-08-30T06:25:27.379Z,13.96
2022-08-30T06:28:09.871Z,14.25
2022-08-30T06:30:38.338Z,14.48
2022-08-30T06:33:07.521Z,14.73
2022-08-30T06:35:46.757Z,14.92
2022-08-30T06:38:22.507Z,15.06
2022-08-30T06:40:51.550Z,15.23
2022-08-30T06:43:20.412Z,15.34
2022-08-30T06:45:49.005Z,15.51
2022-08-30T06:48:18.424Z,15.65
2022-08-30T06:50:54.369Z,15.84
2022-08-30T06:53:24.336Z,16.05
2022-08-30T06:55:57.758Z,16.20
2022-08-30T06:58:26.361Z,16.36
2022-08-30T07:00:55.027Z,16.47
2022-08-30T07:03:25.771Z,16.65
2022-08-30T07:05:55.830Z,16.75
2022-08-30T07:08:24.343Z,16.83
2022-08-30T07:10:54.228Z,16.95
2022-08-30T07:13:24.238Z,17.11
2022-08-30T07:15:53.126Z,17.25
2022-08-30T07:18:39.232Z,17.39
2022-08-30T07:21:10.787Z,17.57
2022-08-30T07:23:39.293Z,17.68
2022-08-30T07:26:12.389Z,17.84
2022-08-30T07:28:40.622Z,17.95
2022-08-30T07:31:11.611Z,18.00
2022-08-30T07:33:40.498Z,18.15
2022-08-30T07:36:10.743Z,18.18
2022-08-30T07:38:39.044Z,18.28
2022-08-30T07:41:07.694Z,18.38
2022-08-30T07:43:37.607Z,18.47
2022-08-30T07:46:06.908Z,18.60
2022-08-30T07:48:39.809Z,18.75
2022-08-30T07:51:12.983Z,18.84
2022-08-30T07:53:44.270Z,18.96
2022-08-30T07:56:12.479Z,19.09
2022-08-30T07:58:45.746Z,19.14
2022-08-30T08:01:15.073Z,19.25
2022-08-30T08:03:44.147Z,19.27
2022-08-30T08:06:14.980Z,19.40
2022-08-30T08:08:45.437Z,19.48
2022-08-30T08:11:17.628Z,19.60
2022-08-30T08:13:53.968Z,19.75
2022-08-30T08:16:23.031Z,19.71
2022-08-30T08:18:51.415Z,19.92
2022-08-30T08:21:22.842Z,19.96
2022-08-30T08:23:51.156Z,20.02
2022-08-30T08:26:19.493Z,20.04
2022-08-30T08:28:47.763Z,20.08
2022-08-30T08:31:17.307Z,20.07
2022-08-30T08:33:45.859Z,20.08
2022-08-30T08:36:14.026Z,20.16
2022-08-30T08:38:44.730Z,20.19
2022-08-30T08:41:18.368Z,20.29
2022-08-30T08:43:46.533Z,20.43
2022-08-30T08:46:17.796Z,20.38
2022-08-30T08:49:00.063Z,20.54
2022-08-30T08:51:48.329Z,20.65
2022-08-30T08:54:23.079Z,20.69
2022-08-30T08:56:52.775Z,20.73
2022-08-30T08:59:21.198Z,20.73
2022-08-30T09:01:51.074Z,20.81
2022-08-30T09:04:21.867Z,20.91
2022-08-30T09:06:53.540Z,21.17
2022-08-30T09:09:28.962Z,21.49
2022-08-30T09:11:58.851Z,21.58
2022-08-30T09:14:30.256Z,21.66
2022-08-30T09:17:02.607Z,21.76
2022-08-30T09:19:42.864Z,21.75
2022-08-30T09:22:26.571Z,21.95
2022-08-30T09:25:02.991Z,21.89
2022-08-30T09:27:39.900Z,21.95
2022-08-30T09:30:14.860Z,22.24
2022-08-30T09:32:44.439Z,22.57
2022-08-30T09:35:13.749Z,22.84
2022-08-30T09:37:46.654Z,23.11
2022-08-30T09:40:22.602Z,23.19
2022-08-30T09:43:02.187Z,23.47
2022-08-30T09:45:33.066Z,23.84
2022-08-30T09:48:04.319Z,23.84
2022-08-30T09:50:46.490Z,24.12
2022-08-30T09:53:23.360Z,24.16
2022-08-30T09:56:10.206Z,24.38
2022-08-30T09:58:51.421Z,24.54
2022-08-30T10:01:23.560Z,24.74
2022-08-30T10:03:56.229Z,24.48
2022-08-30T10:06:29.195Z,24.23
2022-08-30T10:09:05.123Z,24.30
2022-08-30T10:11:38.270Z,24.61
2022-08-30T10:14:29.561Z,25.20
2022-08-30T10:17:02.548Z,25.11
2022-08-30T10:19:44.416Z,25.46
2022-08-30T10:22:17.272Z,25.60
2022-08-30T10:24:48.148Z,25.94
2022-08-30T10:27:22.762Z,25.73
2022-08-30T10:29:52.972Z,25.92
2022-08-30T10:32:26.807Z,25.92
2022-08-30T10:35:00.469Z,25.50
2022-08-30T10:37:30.283Z,25.59
2022-08-30T10:40:20.243Z,25.77
2022-08-30T10:42:53.175Z,25.91
2022-08-30T10:45:21.711Z,25.71
2022-08-30T10:47:51.531Z,25.43
2022-08-30T10:50:23.019Z,25.38
2022-08-30T10:52:54.443Z,25.29
2022-08-30T10:55:26.205Z,25.25
2022-08-30T10:58:02.124Z,25.51
2022-08-30T11:00:31.229Z,25.77
2022-08-30T11:03:32.661Z,25.97
2022-08-30T11:06:19.948Z,26.04
2022-08-30T11:09:08.742Z,26.34
2022-08-30T11:11:44.129Z,26.20
2022-08-30T11:14:25.557Z,26.47
2022-08-30T11:16:58.353Z,26.84
2022-08-30T11:19:32.245Z,27.21
2022-08-30T11:22:12.795Z,27.17
2022-08-30T11:25:00.778Z,27.28
2022-08-30T11:27:44.820Z,27.42
2022-08-30T11:30:54.296Z,27.48
2022-08-30T11:33:31.241Z,27.12
2022-08-30T11:35:59.451Z,26.65
2022-08-30T11:39:12.258Z,26.68
2022-08-30T11:44:32.922Z,25.51
2022-08-30T11:47:37.277Z,25.32
2022-08-30T11:50:13.715Z,25.71
2022-08-30T11:52:48.850Z,25.85
2022-08-30T11:55:45.151Z,25.82
2022-08-30T11:58:21.974Z,25.56
2022-08-30T12:00:53.159Z,25.55
2022-08-30T12:03:36.273Z,25.22
2022-08-30T12:06:07.311Z,25.41
2022-08-30T12:09:02.287Z,25.37
2022-08-30T12:11:58.406Z,25.01
2022-08-30T12:14:52.012Z,24.64
2022-08-30T12:17:41.955Z,24.54
2022-08-30T12:20:27.679Z,24.19
2022-08-30T12:23:16.568Z,23.87
2022-08-30T12:25:48.874Z,23.61
2022-08-30T12:28:30.148Z,23.83
2022-08-30T12:31:08.475Z,23.89
2022-08-30T12:33:44.762Z,23.76
2022-08-30T12:36:14.885Z,23.88
2022-08-30T12:38:45.111Z,24.05
2022-08-30T12:41:19.815Z,23.95
2022-08-30T12:43:50.455Z,24.03
2022-08-30T12:46:19.190Z,23.85
2022-08-30T12:48:48.975Z,23.64
2022-08-30T12:51:29.120Z,23.93
2022-08-30T12:54:09.473Z,23.88
2022-08-30T12:56:49.598Z,23.90
2022-08-30T12:59:59.650Z,23.71
2022-08-30T13:02:43.334Z,23.70
2022-08-30T13:05:47.791Z,23.52
2022-08-30T13:08:21.486Z,23.55
2022-08-30T13:11:08.725Z,23.47
2022-08-30T13:13:41.470Z,23.19
2022-08-30T13:16:44.559Z,23.23
2022-08-30T13:19:32.588Z,23.25
2022-08-30T13:22:27.827Z,22.80
2022-08-30T13:24:57.391Z,22.57
2022-08-30T13:30:57.807Z,22.20
2022-08-30T13:33:28.324Z,22.08
2022-08-30T13:35:56.498Z,21.98
2022-08-30T13:38:27.559Z,21.97
2022-08-30T13:40:58.924Z,21.90
2022-08-30T13:43:29.083Z,21.80
2022-08-30T13:46:27.323Z,21.73
2022-08-30T13:49:02.467Z,21.90
2022-08-30T13:51:31.269Z,21.95
2022-08-30T13:54:00.808Z,22.00
2022-08-30T13:56:31.914Z,22.08
2022-08-30T13:59:00.483Z,22.20
2022-08-30T14:02:07.497Z,22.24
2022-08-30T14:04:26.198Z,22.37
2022-08-30T14:07:19.816Z,22.54
2022-08-30T14:09:52.060Z,22.72
2022-08-30T14:12:52.734Z,22.83
2022-08-30T14:15:14.731Z,23.05
2022-08-30T14:17:48.285Z,23.13
2022-08-30T14:20:18.328Z,23.25
2022-08-30T14:22:46.962Z,23.43
2022-08-30T14:25:16.696Z,23.29
2022-08-30T14:27:45.399Z,23.08
2022-08-30T14:30:19.081Z,22.89
2022-08-30T14:32:52.373Z,22.92
2022-08-30T14:35:20.699Z,22.84
2022-08-30T14:37:49.464Z,22.42
2022-08-30T14:40:21.143Z,22.33
2022-08-30T14:42:49.821Z,22.43
2022-08-30T14:45:19.057Z,22.24
2022-08-30T14:47:48.075Z,22.20
2022-08-30T14:50:17.709Z,22.14
2022-08-30T14:52:46.583Z,22.10
2022-08-30T14:55:15.106Z,21.99
2022-08-30T14:57:44.448Z,22.02
2022-08-30T15:00:21.071Z,22.10
2022-08-30T15:02:54.078Z,22.15
2022-08-30T15:05:25.136Z,22.37
2022-08-30T15:07:55.463Z,22.33
2022-08-30T15:10:25.531Z,22.23
2022-08-30T15:12:54.069Z,22.28
2022-08-30T15:15:25.705Z,22.36
2022-08-30T15:17:58.513Z,22.29
2022-08-30T15:20:29.318Z,22.18
2022-08-30T15:22:58.666Z,22.06
2022-08-30T15:25:27.644Z,22.03
2022-08-30T15:27:56.742Z,22.00
2022-08-30T15:30:25.192Z,21.87
2022-08-30T15:32:55.404Z,21.89
2022-08-30T15:35:28.823Z,21.91
2022-08-30T15:38:56.149Z,21.88
2022-08-30T15:42:38.870Z,21.97
2022-08-30T15:45:31.137Z,21.81
2022-08-30T15:48:00.519Z,21.71
2022-08-30T15:50:42.883Z,21.66
2022-08-30T15:53:17.625Z,21.62
2022-08-30T15:55:51.496Z,21.52
2022-08-30T15:58:28.854Z,21.52
2022-08-30T16:08:19.337Z,21.25
2022-08-30T16:10:48.046Z,21.18
2022-08-30T16:13:22.321Z,21.08
2022-08-30T16:15:52.791Z,20.95
2022-08-30T16:18:25.563Z,20.82
2022-08-30T16:21:04.647Z,20.80
2022-08-30T16:23:36.881Z,20.64
2022-08-30T16:26:08.023Z,20.59
2022-08-30T16:28:42.133Z,20.47
2022-08-30T16:31:17.198Z,20.41
2022-08-30T16:33:46.807Z,20.37
2022-08-30T16:36:23.838Z,20.30
2022-08-30T16:39:05.611Z,20.21
2022-08-30T16:41:40.011Z,20.13
2022-08-30T16:44:08.535Z,20.10
2022-08-30T16:46:36.866Z,20.02
2022-08-30T16:49:05.987Z,19.98
2022-08-30T16:51:38.274Z,19.91
2022-08-30T16:54:10.651Z,19.84
2022-08-30T17:03:35.546Z,19.61
2022-08-30T17:06:05.714Z,19.55
2022-08-30T17:08:35.037Z,19.47
2022-08-30T17:11:05.204Z,19.40
2022-08-30T17:13:36.403Z,19.36
2022-08-30T17:16:07.631Z,19.30
2022-08-30T17:18:37.196Z,19.22
2022-08-30T17:21:05.750Z,19.15
2022-08-30T17:23:35.823Z,19.09
2022-08-30T17:26:05.964Z,19.02
2022-08-30T17:28:34.527Z,18.97
2022-08-30T17:31:05.466Z,18.90
2022-08-30T17:33:38.102Z,18.82
2022-08-30T17:36:07.836Z,18.76
2022-08-30T17:38:36.288Z,18.67
2022-08-30T17:41:22.988Z,18.60
2022-08-30T17:43:51.695Z,18.58
2022-08-30T17:46:21.048Z,18.55
2022-08-30T17:48:57.992Z,18.49
2022-08-30T17:51:31.480Z,18.39
2022-08-30T17:54:02.417Z,18.32
2022-08-30T17:56:35.644Z,18.23
2022-08-30T17:59:09.103Z,18.15
2022-08-30T18:01:37.994Z,18.12
2022-08-30T18:04:06.655Z,18.06
2022-08-30T18:06:34.951Z,17.99
2022-08-30T18:09:03.645Z,17.90
2022-08-30T18:11:36.953Z,17.81
2022-08-30T18:14:05.332Z,17.74
2022-08-30T18:16:35.051Z,17.67
2022-08-30T18:19:04.298Z,17.60
2022-08-30T18:21:32.792Z,17.54
2022-08-30T18:24:01.791Z,17.51
2022-08-30T18:26:32.769Z,17.43
2022-08-30T18:29:03.462Z,17.37
2022-08-30T18:31:32.052Z,17.28
2022-08-30T18:34:01.546Z,17.23
2022-08-30T18:36:30.685Z,17.17
2022-08-30T18:38:59.733Z,17.09
2022-08-30T18:41:29.373Z,17.03
2022-08-30T18:44:26.096Z,16.98
2022-08-30T18:46:55.976Z,16.92
2022-08-30T18:49:25.330Z,16.88
2022-08-30T18:51:54.187Z,16.78
2022-08-30T18:54:25.413Z,16.72
2022-08-30T18:56:57.364Z,16.65
2022-08-30T18:59:35.272Z,16.59
2022-08-30T19:02:07.258Z,16.53
2022-08-30T19:04:38.867Z,16.43
2022-08-30T19:07:07.687Z,16.39
2022-08-30T19:09:36.583Z,16.32
2022-08-30T19:12:07.816Z,16.26
2022-08-30T19:14:39.884Z,16.19
2022-08-30T19:17:10.019Z,16.14
2022-08-30T19:19:48.378Z,16.09
2022-08-30T19:22:19.054Z,16.04
2022-08-30T19:24:52.456Z,15.98
2022-08-30T19:27:37.264Z,15.92
2022-08-30T19:30:10.159Z,15.88
2022-08-30T19:32:40.131Z,15.83
2022-08-30T19:35:10.199Z,15.77
2022-08-30T19:37:38.942Z,15.73
2022-08-30T19:40:10.221Z,15.69
2022-08-30T19:42:46.142Z,15.64
2022-08-30T19:45:18.200Z,15.61
2022-08-30T19:47:49.466Z,15.56
2022-08-30T19:50:18.253Z,15.52
2022-08-30T19:52:53.380Z,15.50
2022-08-30T19:55:28.630Z,15.45
2022-08-30T19:58:00.535Z,15.42
2022-08-30T20:00:31.054Z,15.43
2022-08-30T20:03:02.156Z,15.45
2022-08-30T20:05:31.396Z,15.46
2022-08-30T20:08:00.100Z,15.41
2022-08-30T20:10:29.780Z,15.36
2022-08-30T20:12:59.821Z,15.28
2022-08-30T20:15:28.047Z,15.22
2022-08-30T20:23:35.678Z,15.08
2022-08-30T20:26:04.800Z,15.04
2022-08-30T20:28:33.123Z,15.00
2022-08-30T20:31:01.423Z,14.97
2022-08-30T20:33:30.068Z,14.90
2022-08-30T20:36:02.762Z,14.83
2022-08-30T20:38:31.515Z,14.79
2022-08-30T20:41:01.188Z,14.76
2022-08-30T20:43:30.595Z,14.72
2022-08-30T20:45:59.113Z,14.69
2022-08-30T20:48:28.976Z,14.66
2022-08-30T20:50:57.503Z,14.61
2022-08-30T20:53:28.001Z,14.57
2022-08-30T20:55:56.827Z,14.56
2022-08-30T20:58:25.318Z,14.53
2022-08-30T21:00:53.925Z,14.51
2022-08-30T21:03:27.489Z,14.47
2022-08-30T21:05:56.803Z,14.43
2022-08-30T21:08:25.094Z,14.37
2022-08-30T21:10:55.177Z,14.32
2022-08-30T21:13:23.389Z,14.28
2022-08-30T21:15:52.778Z,14.27
2022-08-30T21:18:22.897Z,14.26
2022-08-30T21:20:52.385Z,14.21
2022-08-30T21:23:20.853Z,14.15
2022-08-30T21:25:49.051Z,14.08
2022-08-30T21:28:19.232Z,14.02
2022-08-30T21:30:48.186Z,13.97
2022-08-30T21:33:16.982Z,13.98
2022-08-30T21:36:10.875Z,13.98
2022-08-30T21:38:39.486Z,13.99
2022-08-30T21:41:07.945Z,13.96
2022-08-30T21:43:38.367Z,13.96
2022-08-30T21:46:07.880Z,14.02
2022-08-30T21:48:39.107Z,14.06
2022-08-30T21:51:08.304Z,14.03
2022-08-30T21:53:37.643Z,14.02
2022-08-30T21:56:09.423Z,13.98
2022-08-30T21:58:44.983Z,13.96
2022-08-30T22:01:21.525Z,13.90
2022-08-30T22:03:50.464Z,13.86
2022-08-30T22:06:18.647Z,13.79
2022-08-30T22:08:50.046Z,13.74
2022-08-30T22:11:22.625Z,13.71
2022-08-30T22:13:57.884Z,13.65
2022-08-30T22:16:26.901Z,13.61
2022-08-30T22:18:55.502Z,13.58
2022-08-30T22:21:24.883Z,13.60
2022-08-30T22:23:53.438Z,13.59
2022-08-30T22:26:22.761Z,13.65
2022-08-30T22:28:53.075Z,13.75
2022-08-30T22:31:22.273Z,13.80
2022-08-30T22:33:51.017Z,13.86
2022-08-30T22:36:20.993Z,13.83
2022-08-30T22:38:51.452Z,13.82
2022-08-30T22:41:20.453Z,13.80
2022-08-30T22:43:58.857Z,13.79
2022-08-30T22:46:34.161Z,13.77
2022-08-30T22:49:06.958Z,13.78
2022-08-30T22:51:37.816Z,13.80
2022-08-30T22:54:07.907Z,13.78
2022-08-30T22:56:37.785Z,13.78
2022-08-30T22:59:10.347Z,13.75
2022-08-30T23:01:42.622Z,13.70
2022-08-30T23:04:11.406Z,13.65
2022-08-30T23:06:40.343Z,13.62
2022-08-30T23:09:12.417Z,13.62
2022-08-30T23:11:44.348Z,13.64
2022-08-30T23:14:15.493Z,13.62
2022-08-30T23:16:48.221Z,13.62
2022-08-30T23:19:16.587Z,13.60
2022-08-30T23:21:45.006Z,13.61
2022-08-30T23:24:30.740Z,13.62
2022-08-30T23:27:16.417Z,13.63
2022-08-30T23:30:03.917Z,13.63
2022-08-30T23:32:49.970Z,13.62
2022-08-30T23:35:35.767Z,13.52
2022-08-30T23:38:23.653Z,13.51
2022-08-30T23:41:09.642Z,13.44
2022-08-30T23:43:55.748Z,13.35
2022-08-30T23:46:42.892Z,13.27
2022-08-30T23:49:28.416Z,13.24
2022-08-30T23:52:14.344Z,13.19
2022-08-30T23:55:00.024Z,13.15
2022-08-30T23:57:45.778Z,13.11
